SANU/UAQ METAR and TAF weather

Enter ICAO airport designator
Station Type Date Time Source
SANU METAR 2019/09/19 11:15 UTC NOAA

SANU 191115Z 18033KT 1500 DS NSC 13/M09 Q1012


Station Type Date Time Source
SANU Decoded METAR 2019/09/19 11:15 UTC NOAA

San Juan Aerodrome, Argentina (SANU) 31-34S 068-52W 598M
Sep 19, 2019 - 07:15 AM EDT / 2019.09.19 1115 UTC
Wind: from the S (180 degrees) at 38 MPH (33 KT):0
Visibility: less than 1 mile:0
Weather: duststorm
Temperature: 55 F (13 C)
Dew Point: 15 F (-9 C)
Relative Humidity: 20%
Pressure (altimeter): 29.88 in. Hg (1012 hPa)
ob: SANU 191115Z 18033KT 1500 DS NSC 13/M09 Q1012
cycle: 11

Station Type Date Time Source
SANU TAF 2019/08/18 18:03 UTC NOAA

TAF TAF SANU 181700Z 1818/1912 18010KT 9999 FEW030 SCT070 TX17/1819Z TN01/1911Z

Example: see airport list